createdAt,value
2019-05-19T00:00:27.169Z,5.07
2019-05-19T00:02:57.714Z,6.80
2019-05-19T00:05:28.416Z,6.20
2019-05-19T00:07:58.800Z,5.40
2019-05-19T00:10:29.270Z,5.90
2019-05-19T00:12:59.757Z,5.30
2019-05-19T00:15:30.190Z,6.60
2019-05-19T00:18:00.561Z,5.87
2019-05-19T00:20:30.999Z,5.97
2019-05-19T00:23:02.360Z,6.50
2019-05-19T00:25:33.327Z,7.13
2019-05-19T00:28:04.336Z,5.70
2019-05-19T00:30:34.790Z,6.50
2019-05-19T00:33:05.203Z,5.63
2019-05-19T00:35:36.211Z,5.50
2019-05-19T00:38:08.462Z,4.87
2019-05-19T00:40:38.873Z,4.00
2019-05-19T00:43:09.414Z,4.17
2019-05-19T00:45:39.840Z,4.03
2019-05-19T00:48:10.455Z,4.90
2019-05-19T00:50:40.957Z,3.97
2019-05-19T00:53:11.582Z,3.00
2019-05-19T00:55:42.029Z,2.60
2019-05-19T00:58:13.139Z,3.37
2019-05-19T01:00:43.666Z,3.07
2019-05-19T01:03:14.289Z,3.57
2019-05-19T01:05:44.716Z,3.33
2019-05-19T01:08:15.427Z,2.90
2019-05-19T01:10:46.411Z,2.60
2019-05-19T01:13:19.083Z,2.97
2019-05-19T01:15:49.518Z,3.20
2019-05-19T01:18:20.058Z,3.40
2019-05-19T01:20:50.623Z,3.90
2019-05-19T01:23:21.024Z,3.20
2019-05-19T01:25:51.490Z,3.37
2019-05-19T01:28:21.862Z,3.00
2019-05-19T01:30:52.295Z,3.00
2019-05-19T01:33:22.735Z,2.87
2019-05-19T01:35:53.127Z,3.00
2019-05-19T01:38:23.584Z,3.13
2019-05-19T01:40:54.008Z,4.20
2019-05-19T01:43:24.585Z,3.23
2019-05-19T01:45:54.989Z,4.07
2019-05-19T01:48:27.923Z,3.43
2019-05-19T01:50:57.552Z,3.20
2019-05-19T01:53:27.971Z,2.80
2019-05-19T01:55:58.476Z,2.40
2019-05-19T01:58:29.439Z,3.10
2019-05-19T02:00:59.814Z,3.50
2019-05-19T02:03:30.296Z,1.97
2019-05-19T02:06:00.670Z,2.83
2019-05-19T02:08:31.094Z,2.40
2019-05-19T02:11:02.186Z,3.10
2019-05-19T02:13:32.590Z,3.00
2019-05-19T02:16:03.005Z,2.37
2019-05-19T02:18:33.441Z,3.27
2019-05-19T02:21:03.848Z,2.03
2019-05-19T02:23:34.421Z,2.70
2019-05-19T02:26:04.820Z,2.60
2019-05-19T02:28:35.189Z,2.90
2019-05-19T02:31:05.629Z,3.23
2019-05-19T02:33:36.125Z,2.57
2019-05-19T02:36:06.687Z,3.00
2019-05-19T02:38:37.079Z,2.80
2019-05-19T02:41:08.716Z,2.40
2019-05-19T02:43:40.222Z,3.50
2019-05-19T02:46:12.380Z,2.80
2019-05-19T02:48:44.067Z,2.70
2019-05-19T02:51:16.799Z,2.90
2019-05-19T02:53:48.840Z,2.53
2019-05-19T02:56:20.111Z,3.17
2019-05-19T02:58:51.399Z,2.30
2019-05-19T03:01:22.178Z,2.30
2019-05-19T03:03:52.599Z,2.47
2019-05-19T03:06:23.159Z,2.47
2019-05-19T03:08:53.769Z,2.40
2019-05-19T03:11:24.267Z,1.70
2019-05-19T03:13:54.676Z,2.33
2019-05-19T03:16:25.123Z,2.67
2019-05-19T03:18:55.499Z,2.10
2019-05-19T03:21:26.184Z,2.17
2019-05-19T03:23:56.581Z,2.87
2019-05-19T03:26:27.114Z,2.33
2019-05-19T03:28:57.524Z,2.90
2019-05-19T03:31:34.671Z,2.40
2019-05-19T03:34:05.270Z,2.57
2019-05-19T03:36:35.715Z,2.50
2019-05-19T03:39:07.624Z,2.27
2019-05-19T03:41:38.059Z,2.40
2019-05-19T03:44:08.471Z,2.30
2019-05-19T03:46:39.341Z,2.77
2019-05-19T03:49:09.742Z,2.30
2019-05-19T03:51:40.255Z,2.73
2019-05-19T03:54:10.714Z,2.73
2019-05-19T03:56:41.133Z,2.60
2019-05-19T03:59:11.568Z,2.63
2019-05-19T04:01:41.978Z,3.33
2019-05-19T04:04:12.398Z,2.47
2019-05-19T04:06:42.804Z,2.30
2019-05-19T04:09:17.035Z,2.80
2019-05-19T04:11:45.414Z,2.80
2019-05-19T04:14:15.857Z,2.50
2019-05-19T04:16:46.289Z,2.67
2019-05-19T04:19:16.704Z,2.70
2019-05-19T04:21:49.317Z,2.07
2019-05-19T04:24:19.285Z,2.47
2019-05-19T04:26:49.754Z,2.20
2019-05-19T04:29:20.160Z,2.27
2019-05-19T04:31:50.568Z,2.17
2019-05-19T04:34:21.006Z,2.50
2019-05-19T04:36:51.441Z,2.40
2019-05-19T04:39:21.923Z,2.80
2019-05-19T04:41:52.360Z,2.30
2019-05-19T04:44:22.762Z,2.30
2019-05-19T04:46:53.207Z,2.60
2019-05-19T04:49:23.615Z,2.43
2019-05-19T04:52:05.873Z,2.33
2019-05-19T04:54:26.489Z,2.37
2019-05-19T04:56:56.940Z,2.00
2019-05-19T04:59:27.335Z,2.23
2019-05-19T05:01:57.979Z,2.23
2019-05-19T05:04:29.804Z,2.40
2019-05-19T05:07:00.256Z,2.07
2019-05-19T05:09:30.695Z,2.40
2019-05-19T05:12:01.120Z,2.30
2019-05-19T05:14:31.547Z,2.67
2019-05-19T05:17:02.026Z,3.35
2019-05-19T05:19:32.414Z,2.30
2019-05-19T05:22:02.870Z,2.40
2019-05-19T05:24:33.358Z,2.03
2019-05-19T05:27:03.799Z,2.07
2019-05-19T05:29:34.389Z,3.00
2019-05-19T05:32:04.808Z,2.40
2019-05-19T05:34:35.501Z,3.40
2019-05-19T05:37:05.934Z,3.97
2019-05-19T05:39:36.393Z,3.47
2019-05-19T05:42:06.849Z,3.50
2019-05-19T05:44:37.267Z,3.07
2019-05-19T05:47:07.716Z,3.33
2019-05-19T05:49:38.133Z,3.33
2019-05-19T05:52:08.592Z,3.50
2019-05-19T05:54:39.089Z,3.10
2019-05-19T05:57:09.569Z,3.20
2019-05-19T05:59:40.014Z,2.80
2019-05-19T06:02:10.453Z,3.23
2019-05-19T06:04:40.857Z,3.00
2019-05-19T06:07:12.469Z,2.70
2019-05-19T06:09:43.149Z,3.33
2019-05-19T06:12:13.573Z,2.97
2019-05-19T06:14:44.237Z,3.00
2019-05-19T06:17:14.763Z,2.77
2019-05-19T06:19:45.179Z,2.90
2019-05-19T06:22:15.623Z,2.47
2019-05-19T06:24:46.079Z,3.00
2019-05-19T06:27:16.544Z,3.00
2019-05-19T06:29:47.012Z,3.07
2019-05-19T06:32:41.088Z,3.57
2019-05-19T06:35:12.036Z,2.30
2019-05-19T06:37:42.498Z,2.83
2019-05-19T06:40:12.973Z,3.97
2019-05-19T06:42:43.524Z,4.47
2019-05-19T06:45:14.768Z,4.33
2019-05-19T06:47:45.471Z,4.83
2019-05-19T06:50:16.301Z,5.93
2019-05-19T06:52:46.879Z,6.67
2019-05-19T06:55:17.552Z,8.00
2019-05-19T06:57:47.943Z,7.13
2019-05-19T07:00:18.541Z,6.37
2019-05-19T07:02:49.086Z,5.30
2019-05-19T07:05:19.480Z,4.50
2019-05-19T07:07:49.877Z,5.23
2019-05-19T07:10:20.406Z,4.80
2019-05-19T07:12:50.878Z,3.53
2019-05-19T07:15:21.721Z,3.40
2019-05-19T07:17:52.210Z,3.10
2019-05-19T07:20:22.625Z,2.83
2019-05-19T07:22:53.141Z,2.47
2019-05-19T07:25:23.547Z,2.67
2019-05-19T07:27:54.118Z,2.20
2019-05-19T07:30:24.551Z,2.43
2019-05-19T07:32:55.031Z,2.00
2019-05-19T07:35:25.472Z,2.57
2019-05-19T07:37:56.052Z,3.30
2019-05-19T07:40:26.527Z,2.63
2019-05-19T07:42:57.035Z,2.63
2019-05-19T07:45:27.442Z,2.10
2019-05-19T07:47:57.925Z,3.20
2019-05-19T07:50:28.357Z,4.53
2019-05-19T07:52:58.853Z,4.43
2019-05-19T07:55:29.357Z,4.00
2019-05-19T07:57:59.844Z,4.33
2019-05-19T08:00:30.325Z,4.70
2019-05-19T08:03:00.740Z,4.70
2019-05-19T08:05:31.173Z,4.50
2019-05-19T08:08:01.743Z,4.40
2019-05-19T08:10:32.226Z,4.60
2019-05-19T08:13:02.783Z,4.60
2019-05-19T08:15:33.304Z,3.97
2019-05-19T08:18:03.831Z,3.70
2019-05-19T08:20:34.299Z,3.90
2019-05-19T08:23:04.788Z,3.40
2019-05-19T08:25:35.303Z,3.10
2019-05-19T08:28:08.807Z,3.07
2019-05-19T08:30:37.913Z,3.23
2019-05-19T08:33:08.767Z,3.20
2019-05-19T08:35:39.311Z,3.60
2019-05-19T08:38:09.728Z,2.50
2019-05-19T08:40:40.288Z,2.60
2019-05-19T08:43:10.788Z,2.93
2019-05-19T08:45:41.276Z,2.30
2019-05-19T08:48:11.887Z,2.30
2019-05-19T08:50:42.324Z,2.07
2019-05-19T08:53:13.127Z,2.47
2019-05-19T08:55:43.674Z,2.80
2019-05-19T08:58:14.192Z,2.47
2019-05-19T09:00:44.968Z,2.47
2019-05-19T09:03:15.596Z,2.43
2019-05-19T09:05:47.954Z,2.07
2019-05-19T09:08:18.482Z,2.10
2019-05-19T09:10:48.913Z,1.90
2019-05-19T09:13:19.779Z,1.90
2019-05-19T09:15:50.364Z,1.77
2019-05-19T09:18:20.820Z,1.67
2019-05-19T09:20:51.262Z,1.87
2019-05-19T09:23:21.729Z,1.70
2019-05-19T09:25:52.174Z,1.60
2019-05-19T09:28:22.813Z,1.70
2019-05-19T09:30:53.340Z,1.60
2019-05-19T09:33:23.995Z,1.70
2019-05-19T09:35:54.539Z,2.07
2019-05-19T09:38:24.949Z,4.40
2019-05-19T09:40:55.702Z,1.77
2019-05-19T09:43:26.307Z,1.67
2019-05-19T09:45:56.871Z,2.10
2019-05-19T09:48:27.400Z,1.80
2019-05-19T09:50:57.889Z,2.00
2019-05-19T09:53:28.374Z,2.33
2019-05-19T09:55:58.983Z,2.10
2019-05-19T09:58:29.457Z,2.77
2019-05-19T10:01:00.023Z,2.10
2019-05-19T10:03:30.505Z,2.33
2019-05-19T10:06:00.943Z,1.97
2019-05-19T10:08:37.296Z,2.30
2019-05-19T10:12:05.459Z,2.30
2019-05-19T10:14:35.948Z,2.20
2019-05-19T10:17:06.409Z,1.60
2019-05-19T10:19:36.936Z,1.97
2019-05-19T10:22:07.356Z,1.70
2019-05-19T10:24:37.938Z,1.80
2019-05-19T10:27:08.409Z,1.80
2019-05-19T10:29:39.037Z,1.80
2019-05-19T10:32:09.586Z,2.40
2019-05-19T10:34:40.123Z,2.20
2019-05-19T10:37:10.833Z,2.53
2019-05-19T10:39:43.946Z,2.00
2019-05-19T10:42:16.306Z,2.07
2019-05-19T10:44:46.834Z,2.00
2019-05-19T10:47:20.371Z,2.43
2019-05-19T10:49:50.758Z,2.17
2019-05-19T10:52:21.230Z,1.73
2019-05-19T10:54:51.693Z,2.30
2019-05-19T10:57:22.139Z,2.60
2019-05-19T10:59:52.849Z,3.20
2019-05-19T11:02:23.244Z,2.63
2019-05-19T11:04:53.716Z,2.30
2019-05-19T11:07:24.412Z,1.73
2019-05-19T11:09:54.843Z,2.50
2019-05-19T11:12:25.339Z,2.20
2019-05-19T11:14:55.859Z,1.90
2019-05-19T11:17:26.304Z,1.90
2019-05-19T11:19:56.776Z,2.00
2019-05-19T11:22:27.272Z,1.90
2019-05-19T11:24:57.819Z,1.73
2019-05-19T11:27:28.258Z,1.90
2019-05-19T11:29:58.709Z,1.60
2019-05-19T11:32:29.186Z,1.83
2019-05-19T11:34:59.655Z,2.10
2019-05-19T11:37:30.118Z,1.80
2019-05-19T11:40:00.536Z,2.40
2019-05-19T11:42:31.007Z,1.77
2019-05-19T11:45:01.535Z,2.03
2019-05-19T11:47:32.289Z,1.80
2019-05-19T11:50:02.754Z,2.17
2019-05-19T11:52:33.166Z,2.10
2019-05-19T11:55:04.129Z,2.77
2019-05-19T11:57:34.562Z,2.33
2019-05-19T12:00:05.579Z,2.53
2019-05-19T12:02:36.092Z,2.10
2019-05-19T12:05:07.411Z,2.20
2019-05-19T12:07:37.847Z,2.57
2019-05-19T12:10:08.863Z,2.20
2019-05-19T12:12:39.419Z,2.53
2019-05-19T12:15:11.558Z,2.20
2019-05-19T12:17:42.008Z,2.10
2019-05-19T12:20:12.850Z,2.40
2019-05-19T12:22:43.274Z,2.90
2019-05-19T12:25:13.992Z,2.57
2019-05-19T12:27:44.462Z,2.60
2019-05-19T12:30:19.661Z,2.60
2019-05-19T12:32:50.220Z,2.70
2019-05-19T12:35:20.781Z,2.00
2019-05-19T12:37:51.334Z,2.70
2019-05-19T12:40:22.758Z,2.70
2019-05-19T12:42:53.461Z,2.80
2019-05-19T12:45:24.354Z,2.67
2019-05-19T12:47:55.015Z,2.40
2019-05-19T12:50:25.495Z,2.20
2019-05-19T12:52:55.980Z,2.67
2019-05-19T12:55:26.480Z,2.33
2019-05-19T12:57:56.949Z,2.50
2019-05-19T13:00:27.493Z,2.23
2019-05-19T13:02:57.960Z,2.50
2019-05-19T13:05:28.366Z,2.17
2019-05-19T13:07:58.756Z,2.53
2019-05-19T13:10:29.151Z,2.33
2019-05-19T13:12:59.634Z,2.60
2019-05-19T13:15:30.097Z,2.00
2019-05-19T13:18:00.477Z,2.17
2019-05-19T13:20:30.917Z,2.50
2019-05-19T13:23:01.337Z,2.27
2019-05-19T13:25:32.112Z,2.70
2019-05-19T13:28:02.854Z,2.60
2019-05-19T13:30:33.341Z,2.30
2019-05-19T13:33:03.769Z,2.73
2019-05-19T13:35:34.168Z,2.20
2019-05-19T13:38:04.764Z,2.60
2019-05-19T13:40:35.145Z,2.80
2019-05-19T13:43:05.746Z,2.17
2019-05-19T13:45:36.161Z,2.67
2019-05-19T13:48:06.627Z,2.13
2019-05-19T13:50:37.036Z,2.47
2019-05-19T13:53:07.690Z,1.83
2019-05-19T13:55:38.173Z,1.97
2019-05-19T13:58:08.655Z,2.53
2019-05-19T14:00:39.023Z,2.17
2019-05-19T14:03:09.481Z,2.27
2019-05-19T14:05:39.995Z,2.30
2019-05-19T14:08:10.455Z,2.10
2019-05-19T14:10:40.908Z,1.73
2019-05-19T14:13:11.418Z,2.70
2019-05-19T14:15:43.190Z,1.93
2019-05-19T14:18:13.747Z,2.17
2019-05-19T14:20:44.203Z,2.50
2019-05-19T14:23:14.693Z,2.30
2019-05-19T14:25:45.277Z,2.13
2019-05-19T14:28:15.718Z,2.07
2019-05-19T14:30:46.171Z,2.30
2019-05-19T14:33:16.732Z,2.70
2019-05-19T14:35:47.182Z,2.40
2019-05-19T14:38:17.725Z,2.33
2019-05-19T14:40:48.364Z,2.70
2019-05-19T14:43:19.642Z,2.10
2019-05-19T14:45:50.098Z,1.90
2019-05-19T14:48:20.996Z,2.97
2019-05-19T14:50:53.382Z,2.37
2019-05-19T14:53:23.954Z,2.80
2019-05-19T14:55:54.469Z,2.30
2019-05-19T14:58:24.970Z,2.37
2019-05-19T15:00:55.450Z,2.30
2019-05-19T15:03:25.920Z,2.30
2019-05-19T15:05:56.577Z,2.50
2019-05-19T15:08:26.956Z,2.50
2019-05-19T15:10:57.422Z,2.40
2019-05-19T15:13:27.923Z,2.37
2019-05-19T15:15:58.561Z,2.03
2019-05-19T15:18:29.353Z,2.40
2019-05-19T15:20:59.848Z,2.30
2019-05-19T15:23:30.316Z,2.90
2019-05-19T15:26:00.800Z,2.63
2019-05-19T15:28:31.326Z,2.80
2019-05-19T15:31:01.930Z,2.40
2019-05-19T15:33:38.409Z,2.60
2019-05-19T15:36:04.666Z,2.60
2019-05-19T15:38:35.162Z,3.03
2019-05-19T15:41:05.971Z,2.37
2019-05-19T15:43:36.461Z,2.37
2019-05-19T15:46:07.293Z,5.33
2019-05-19T15:48:37.735Z,4.33
2019-05-19T15:51:08.221Z,2.37
2019-05-19T15:53:38.696Z,2.80
2019-05-19T15:56:09.307Z,2.60
2019-05-19T15:58:41.587Z,2.53
2019-05-19T16:01:12.115Z,2.97
2019-05-19T16:03:42.584Z,3.27
2019-05-19T16:06:13.188Z,2.70
2019-05-19T16:08:43.652Z,2.43
2019-05-19T16:11:14.088Z,2.30
2019-05-19T16:13:44.556Z,2.90
2019-05-19T16:16:15.097Z,2.20
2019-05-19T16:18:45.574Z,2.00
2019-05-19T16:21:16.010Z,2.40
2019-05-19T16:23:47.745Z,2.67
2019-05-19T16:26:18.188Z,2.33
2019-05-19T16:28:48.985Z,2.57
2019-05-19T16:31:19.377Z,2.30
2019-05-19T16:33:51.907Z,2.30
2019-05-19T16:36:22.188Z,2.83
2019-05-19T16:38:52.724Z,2.00
2019-05-19T16:41:23.178Z,2.77
2019-05-19T16:43:53.633Z,3.00
2019-05-19T16:46:24.100Z,2.30
2019-05-19T16:48:54.601Z,2.40
2019-05-19T16:51:25.025Z,2.10
2019-05-19T16:53:58.080Z,2.37
2019-05-19T16:56:28.791Z,2.37
2019-05-19T16:58:59.370Z,2.00
2019-05-19T17:01:29.830Z,2.43
2019-05-19T17:04:00.357Z,1.97
2019-05-19T17:06:30.749Z,2.27
2019-05-19T17:09:01.291Z,2.10
2019-05-19T17:11:31.783Z,2.57
2019-05-19T17:14:02.477Z,2.47
2019-05-19T17:16:33.279Z,2.27
2019-05-19T17:19:03.795Z,2.37
2019-05-19T17:21:34.524Z,2.27
2019-05-19T17:24:05.021Z,2.20
2019-05-19T17:26:35.612Z,2.23
2019-05-19T17:29:06.285Z,2.33
2019-05-19T17:31:36.974Z,1.97
2019-05-19T17:34:07.391Z,2.60
2019-05-19T17:36:38.057Z,2.57
2019-05-19T17:39:09.172Z,2.20
2019-05-19T17:41:39.940Z,2.37
2019-05-19T17:44:10.562Z,2.90
2019-05-19T17:46:41.179Z,2.77
2019-05-19T17:49:11.565Z,2.17
2019-05-19T17:51:42.199Z,2.50
2019-05-19T17:54:12.800Z,2.43
2019-05-19T17:56:44.066Z,2.70
2019-05-19T17:59:16.859Z,2.37
2019-05-19T18:01:49.402Z,2.77
2019-05-19T18:04:21.401Z,2.60
2019-05-19T18:06:52.429Z,2.27
2019-05-19T18:09:23.098Z,3.23
2019-05-19T18:11:53.722Z,3.17
2019-05-19T18:14:24.459Z,2.83
2019-05-19T18:16:55.011Z,2.80
2019-05-19T18:19:25.826Z,2.27
2019-05-19T18:21:58.916Z,2.67
2019-05-19T18:24:29.931Z,3.00
2019-05-19T18:27:02.817Z,2.63
2019-05-19T18:29:33.548Z,2.93
2019-05-19T18:32:04.064Z,2.37
2019-05-19T18:34:34.944Z,2.60
2019-05-19T18:37:07.603Z,3.00
2019-05-19T18:39:38.147Z,3.10
2019-05-19T18:42:08.933Z,2.63
2019-05-19T18:44:40.057Z,3.13
2019-05-19T18:47:11.034Z,3.40
2019-05-19T18:49:41.912Z,3.17
2019-05-19T18:52:13.150Z,2.80
2019-05-19T18:54:44.874Z,2.93
2019-05-19T18:57:17.933Z,3.20
2019-05-19T18:59:49.040Z,2.83
2019-05-19T19:02:20.241Z,2.93
2019-05-19T19:04:51.486Z,4.07
2019-05-19T19:07:45.657Z,2.90
2019-05-19T19:10:17.589Z,3.03
2019-05-19T19:12:50.083Z,2.97
2019-05-19T19:15:22.663Z,2.77
2019-05-19T19:17:54.211Z,3.00
2019-05-19T19:20:25.405Z,2.87
2019-05-19T19:22:57.054Z,2.83
2019-05-19T19:25:27.914Z,3.10
2019-05-19T19:27:58.583Z,2.93
2019-05-19T19:30:29.783Z,3.00
2019-05-19T19:33:00.521Z,2.80
2019-05-19T19:35:38.811Z,2.87
2019-05-19T19:38:04.291Z,2.70
2019-05-19T19:40:35.435Z,2.90
2019-05-19T19:43:07.406Z,3.13
2019-05-19T19:45:38.686Z,2.70
2019-05-19T19:48:09.125Z,2.70
2019-05-19T19:50:39.718Z,3.40
2019-05-19T19:53:10.388Z,3.50
2019-05-19T19:55:40.957Z,3.03
2019-05-19T19:58:11.961Z,2.20
2019-05-19T20:00:44.823Z,2.50
2019-05-19T20:03:15.493Z,2.50
2019-05-19T20:05:46.071Z,2.90
2019-05-19T20:08:16.513Z,4.20
2019-05-19T20:10:47.110Z,2.90
2019-05-19T20:13:17.664Z,2.63
2019-05-19T20:15:48.125Z,2.87
2019-05-19T20:18:18.582Z,3.03
2019-05-19T20:20:49.162Z,3.00
2019-05-19T20:23:19.832Z,2.90
2019-05-19T20:25:50.247Z,3.50
2019-05-19T20:28:20.745Z,3.13
2019-05-19T20:30:51.213Z,3.70
2019-05-19T20:33:21.739Z,2.80
2019-05-19T20:35:52.173Z,3.30
2019-05-19T20:38:23.637Z,3.50
2019-05-19T20:40:54.312Z,3.80
2019-05-19T20:43:24.811Z,3.60
2019-05-19T20:45:55.568Z,3.37
2019-05-19T20:48:26.068Z,3.70
2019-05-19T20:50:56.692Z,3.27
2019-05-19T20:53:29.525Z,4.30
2019-05-19T20:56:00.170Z,3.50
2019-05-19T20:58:30.886Z,3.80
2019-05-19T21:01:01.378Z,3.40
2019-05-19T21:03:31.977Z,3.33
2019-05-19T21:06:02.610Z,3.03
2019-05-19T21:08:33.197Z,3.37
2019-05-19T21:11:03.841Z,3.03
2019-05-19T21:13:34.308Z,3.27
2019-05-19T21:16:04.726Z,3.27
2019-05-19T21:18:35.160Z,3.10
2019-05-19T21:21:05.794Z,2.97
2019-05-19T21:23:36.273Z,3.13
2019-05-19T21:26:06.734Z,3.10
2019-05-19T21:28:37.237Z,2.20
2019-05-19T21:31:07.926Z,2.33
2019-05-19T21:33:38.444Z,3.23
2019-05-19T21:36:08.924Z,2.90
2019-05-19T21:38:40.241Z,2.83
2019-05-19T21:41:10.716Z,2.90
2019-05-19T21:43:41.392Z,2.30
2019-05-19T21:46:11.963Z,2.77
2019-05-19T21:48:42.452Z,3.10
2019-05-19T21:51:13.207Z,2.47
2019-05-19T21:53:43.663Z,2.73
2019-05-19T21:56:14.106Z,2.60
2019-05-19T21:58:44.619Z,3.00
2019-05-19T22:01:23.281Z,2.07
2019-05-19T22:03:47.575Z,2.53
2019-05-19T22:06:19.706Z,2.47
2019-05-19T22:08:50.227Z,1.80
2019-05-19T22:11:20.688Z,2.60
2019-05-19T22:13:51.508Z,2.30
2019-05-19T22:16:21.992Z,2.40
2019-05-19T22:18:52.433Z,2.40
2019-05-19T22:21:22.857Z,2.70
2019-05-19T22:23:53.294Z,2.20
2019-05-19T22:26:24.493Z,2.27
2019-05-19T22:28:54.960Z,2.40
2019-05-19T22:31:36.218Z,2.20
2019-05-19T22:33:58.555Z,2.57
2019-05-19T22:36:29.170Z,2.70
2019-05-19T22:39:01.547Z,2.67
2019-05-19T22:41:31.997Z,2.80
2019-05-19T22:44:02.384Z,2.33
2019-05-19T22:46:32.890Z,2.40
2019-05-19T22:49:03.230Z,2.37
2019-05-19T22:51:33.684Z,1.93
2019-05-19T22:54:04.092Z,2.30
2019-05-19T22:56:34.543Z,2.77
2019-05-19T22:59:18.877Z,2.50
2019-05-19T23:01:50.731Z,2.67
2019-05-19T23:04:09.827Z,3.77
2019-05-19T23:06:40.578Z,2.70
2019-05-19T23:09:11.002Z,1.97
2019-05-19T23:11:41.429Z,2.37
2019-05-19T23:14:11.865Z,2.30
2019-05-19T23:16:42.575Z,2.50
2019-05-19T23:19:13.107Z,2.60
2019-05-19T23:21:43.551Z,2.27
2019-05-19T23:24:14.115Z,2.50
2019-05-19T23:26:44.509Z,3.00
2019-05-19T23:29:14.975Z,2.30
2019-05-19T23:31:45.708Z,2.70
2019-05-19T23:34:16.268Z,2.17
2019-05-19T23:36:46.660Z,2.60
2019-05-19T23:39:17.147Z,3.03
2019-05-19T23:41:47.744Z,2.80
2019-05-19T23:44:18.212Z,2.47
2019-05-19T23:46:48.882Z,4.43
2019-05-19T23:49:19.314Z,3.00
2019-05-19T23:51:49.959Z,2.83
2019-05-19T23:54:20.694Z,2.80
2019-05-19T23:56:51.111Z,2.60
2019-05-19T23:59:21.620Z,2.90
